Time;durP1;ratioP1;P1;durP2;ratioP2;P2;SDS_P1;SDS_P2;PMS_P1;PMS_P2;Temp;Humidity;BMP_temperature;BMP_pressure;BME280_temperature;BME280_humidity;BME280_pressure;Samples;Min_cycle;Max_cycle;Signal;HPM_P1;HPM_P2
2024/03/09 00:01:49;;;;;;;1.10;1.00;;;;;;;6.85;82.74;99700.94;5095552;28;20378;-67
2024/03/09 00:04:22;;;;;;;3.50;3.20;;;;;;;6.84;82.23;99701.78;5095221;28;20040;-67
2024/03/09 00:06:52;;;;;;;2.38;1.88;;;;;;;6.86;82.76;99697.56;5095198;28;20048;-67
2024/03/09 00:09:20;;;;;;;2.30;1.60;;;;;;;6.84;82.32;99692.47;5095070;28;20409;-67
2024/03/09 00:11:50;;;;;;;4.67;2.70;;;;;;;6.85;81.61;99694.19;5094811;28;20044;-67
2024/03/09 00:14:19;;;;;;;1.48;1.30;;;;;;;6.87;82.29;99701.81;5095470;28;20125;-67
2024/03/09 00:16:48;;;;;;;2.13;1.92;;;;;;;6.87;81.67;99696.72;5095017;28;20142;-67
2024/03/09 00:19:20;;;;;;;3.17;2.88;;;;;;;6.84;82.46;99701.78;5093759;28;20135;-67
2024/03/09 00:21:51;;;;;;;2.50;1.85;;;;;;;6.83;82.38;99700.06;5095232;28;20044;-67
2024/03/09 00:24:20;;;;;;;1.63;1.52;;;;;;;6.82;82.42;99685.66;5094680;28;20044;-67
2024/03/09 00:26:48;;;;;;;2.37;2.17;;;;;;;6.83;82.39;99694.97;5094588;28;20063;-67
2024/03/09 00:29:17;;;;;;;1.53;1.43;;;;;;;6.84;82.82;99689.09;5094828;28;20130;-67
2024/03/09 00:31:46;;;;;;;2.33;2.13;;;;;;;6.85;82.87;99688.25;5094478;28;20384;-67
2024/03/09 00:34:15;;;;;;;3.10;2.58;;;;;;;6.83;82.83;99692.44;5094382;28;20433;-67
2024/03/09 00:36:45;;;;;;;3.05;2.80;;;;;;;6.74;82.24;99670.38;5094357;28;20036;-67
2024/03/09 00:39:15;;;;;;;2.22;1.83;;;;;;;6.80;83.17;99689.88;5094764;28;20046;-67
2024/03/09 00:41:45;;;;;;;1.65;1.55;;;;;;;6.78;82.37;99682.25;5076327;28;20036;-67
2024/03/09 00:44:14;;;;;;;3.42;1.55;;;;;;;6.79;82.67;99683.09;5094862;28;20502;-66
2024/03/09 00:46:43;;;;;;;2.53;2.33;;;;;;;6.82;82.76;99678.06;5094275;28;20032;-67
2024/03/09 00:49:13;;;;;;;1.77;1.67;;;;;;;6.80;83.34;99670.44;5094676;28;20038;-67
2024/03/09 00:51:41;;;;;;;;;;;;;;;6.79;82.82;99678.03;5095279;28;20792;-67
2024/03/09 00:54:10;;;;;;;8.68;1.77;;;;;;;6.78;82.99;99671.25;5094005;28;20388;-67
2024/03/09 00:56:41;;;;;;;2.93;2.73;;;;;;;6.78;83.20;99673.78;5094002;28;20048;-67
2024/03/09 00:59:13;;;;;;;3.92;2.58;;;;;;;6.76;82.65;99668.69;5076210;28;20051;-67
2024/03/09 01:01:42;;;;;;;2.80;2.20;;;;;;;6.64;83.16;99653.31;5094002;28;20067;-66
2024/03/09 01:04:11;;;;;;;2.28;1.77;;;;;;;6.73;83.16;99663.56;5092839;28;20048;-66
2024/03/09 01:06:40;;;;;;;2.80;2.00;;;;;;;6.64;82.93;99650.78;5094136;28;20032;-66
2024/03/09 01:09:10;;;;;;;6.43;3.67;;;;;;;6.59;83.00;99650.69;5093910;28;20048;-66
2024/03/09 01:11:40;;;;;;;2.65;2.42;;;;;;;6.52;83.19;99641.31;5093790;28;20276;-66
2024/03/09 01:14:10;;;;;;;7.45;5.20;;;;;;;6.63;83.90;99656.66;5094239;28;20075;-67
2024/03/09 01:16:38;;;;;;;2.42;2.25;;;;;;;6.63;84.00;99647.38;5094213;28;20040;-66
2024/03/09 01:19:07;;;;;;;9.63;3.85;;;;;;;6.58;84.21;99646.44;5093744;28;20508;-66
2024/03/09 01:21:37;;;;;;;1.90;1.80;;;;;;;6.55;84.13;99640.50;5093767;28;20051;-67
2024/03/09 01:24:06;;;;;;;2.45;2.28;;;;;;;6.56;84.40;99639.66;5092802;28;20089;-66
2024/03/09 01:26:35;;;;;;;4.38;3.30;;;;;;;6.50;84.33;99635.34;5094064;28;20504;-67
2024/03/09 01:29:05;;;;;;;2.10;1.93;;;;;;;6.49;84.54;99632.78;5093861;28;20139;-67
2024/03/09 01:31:34;;;;;;;12.50;2.83;;;;;;;6.57;84.53;99637.16;5093666;28;20086;-66
2024/03/09 01:34:05;;;;;;;2.20;2.05;;;;;;;6.57;84.13;99631.22;5075712;28;20032;-67
2024/03/09 01:36:34;;;;;;;3.10;2.75;;;;;;;6.53;84.63;99620.16;5092651;28;20062;-67
2024/03/09 01:39:03;;;;;;;3.60;2.70;;;;;;;6.55;84.20;99628.66;5093823;28;20040;-67
2024/03/09 01:41:32;;;;;;;2.13;1.98;;;;;;;6.58;83.81;99627.84;5094112;28;20032;-67
2024/03/09 01:44:01;;;;;;;2.03;1.93;;;;;;;6.59;83.77;99624.50;5092593;28;20482;-66
2024/03/09 01:46:31;;;;;;;3.95;1.73;;;;;;;6.59;83.98;99620.28;5092531;28;20033;-66
2024/03/09 01:49:01;;;;;;;4.28;1.85;;;;;;;6.58;83.67;99622.78;5093857;28;20051;-67
2024/03/09 01:51:30;;;;;;;3.13;2.90;;;;;;;6.59;83.95;99610.13;5093692;28;20565;-67
2024/03/09 01:53:59;;;;;;;4.75;2.45;;;;;;;6.60;84.20;99611.81;5075826;28;20097;-67
2024/03/09 01:56:28;;;;;;;5.13;3.47;;;;;;;6.58;83.79;99603.34;5092194;28;20040;-67
2024/03/09 01:58:58;;;;;;;1.67;1.58;;;;;;;6.59;84.70;99599.13;5092672;28;20090;-67
2024/03/09 02:01:27;;;;;;;2.65;2.45;;;;;;;6.60;84.34;99605.91;5093603;28;20054;-67
2024/03/09 02:03:58;;;;;;;2.42;2.22;;;;;;;6.58;84.28;99603.34;5093697;28;20502;-67
2024/03/09 02:06:28;;;;;;;3.28;2.97;;;;;;;6.60;84.10;99605.91;5093630;28;20048;-67
2024/03/09 02:08:57;;;;;;;5.70;3.38;;;;;;;6.60;84.05;99596.59;5093263;28;20051;-67
2024/03/09 02:11:30;;;;;;;4.43;1.77;;;;;;;6.60;84.70;99600.81;5093270;28;20417;-67
2024/03/09 02:14:00;;;;;;;2.00;1.67;;;;;;;6.58;84.44;99602.50;5075279;28;20048;-68
2024/03/09 02:16:29;;;;;;;3.25;3.05;;;;;;;6.44;84.35;99574.44;5097427;28;20048;-67
2024/03/09 02:19:00;;;;;;;2.90;2.70;;;;;;;6.54;84.82;99590.59;5097252;28;20068;-66
2024/03/09 02:21:31;;;;;;;2.53;1.90;;;;;;;6.51;84.44;99588.88;5097379;28;20048;-67
2024/03/09 02:24:07;;;;;;;6.03;2.90;;;;;;;6.48;84.50;99576.16;5095993;28;20428;-67
2024/03/09 02:26:39;;;;;;;3.10;2.70;;;;;;;6.57;84.69;99583.06;5095796;28;20491;-67
2024/03/09 02:29:09;;;;;;;2.28;2.08;;;;;;;6.56;84.96;99589.81;5095953;28;20052;-67
2024/03/09 02:31:38;;;;;;;2.28;2.05;;;;;;;6.37;84.43;99557.44;5095963;28;20056;-67
2024/03/09 02:34:07;;;;;;;2.17;2.08;;;;;;;6.53;84.63;99582.16;5096652;28;20143;-67
2024/03/09 02:36:38;;;;;;;1.47;1.37;;;;;;;6.49;84.58;99582.94;5096979;28;20040;-67
2024/03/09 02:39:09;;;;;;;6.32;3.58;;;;;;;6.48;84.02;99581.22;5095791;28;20051;-67
2024/03/09 02:41:40;;;;;;;2.45;2.13;;;;;;;6.46;84.32;99577.81;5096668;28;20131;-68
2024/03/09 02:44:12;;;;;;;1.58;1.48;;;;;;;6.39;84.74;99568.44;5095659;28;20051;-67
2024/03/09 02:46:41;;;;;;;3.70;3.40;;;;;;;6.40;84.46;99572.69;5096902;28;20093;-67
2024/03/09 02:49:10;;;;;;;5.70;4.13;;;;;;;6.43;84.10;99577.78;5096719;28;20470;-68
2024/03/09 02:51:39;;;;;;;3.78;3.38;;;;;;;6.49;84.16;99577.88;5096635;28;20048;-67
2024/03/09 02:54:08;;;;;;;3.20;2.90;;;;;;;6.44;84.04;99574.44;5096708;28;20048;-67
2024/03/09 02:56:39;;;;;;;1.15;1.05;;;;;;;6.49;84.24;99577.88;5096629;28;20040;-67
2024/03/09 02:59:08;;;;;;;0.75;0.75;;;;;;;6.48;84.43;99576.16;5078625;28;20055;-67
2024/03/09 03:01:37;;;;;;;2.87;2.67;;;;;;;6.49;83.94;99577.88;5096716;28;20044;-67
2024/03/09 03:04:05;;;;;;;6.90;3.40;;;;;;;6.46;83.54;99577.81;5096455;28;20327;-67
2024/03/09 03:06:36;;;;;;;4.57;4.13;;;;;;;6.46;84.00;99576.97;5096320;28;20035;-67
2024/03/09 03:09:11;;;;;;;5.55;3.85;;;;;;;6.41;84.18;99578.59;5096766;28;20062;-67
2024/03/09 03:11:42;;;;;;;2.88;2.67;;;;;;;6.36;84.14;99573.44;5096309;28;20142;-67
2024/03/09 03:14:12;;;;;;;4.18;3.78;;;;;;;6.32;84.23;99574.25;5096161;28;20040;-67
2024/03/09 03:16:41;;;;;;;5.40;3.20;;;;;;;6.27;83.76;99570.78;5095972;28;20478;-67
2024/03/09 03:19:10;;;;;;;1.40;1.30;;;;;;;6.22;84.17;99577.47;5095925;28;20066;-67
2024/03/09 03:21:40;;;;;;;1.53;1.43;;;;;;;6.22;84.05;99572.41;5094954;28;20115;-67
2024/03/09 03:24:10;;;;;;;3.65;1.63;;;;;;;6.22;84.08;99577.47;5095812;28;20406;-67
2024/03/09 03:26:40;;;;;;;2.58;1.88;;;;;;;6.22;83.97;99567.34;5095531;28;20482;-67
2024/03/09 03:29:10;;;;;;;0.82;0.82;;;;;;;6.20;83.93;99571.53;5094943;28;20134;-67
2024/03/09 03:31:41;;;;;;;4.80;2.80;;;;;;;6.21;83.68;99575.78;5096205;28;20058;-67
2024/03/09 03:34:10;;;;;;;4.65;4.00;;;;;;;6.22;84.07;99572.41;5095641;28;20597;-67
2024/03/09 03:36:39;;;;;;;2.20;2.00;;;;;;;6.20;83.92;99568.16;5094415;28;20122;-67
2024/03/09 03:39:12;;;;;;;2.65;2.15;;;;;;;6.16;83.80;99562.19;5096088;28;20042;-67
2024/03/09 03:41:43;;;;;;;1.83;1.48;;;;;;;6.17;84.35;99568.94;5095983;28;20446;-67
2024/03/09 03:44:14;;;;;;;;;;;;;;;6.12;83.83;99564.66;5095806;28;20079;-67
2024/03/09 03:46:44;;;;;;;1.55;1.48;;;;;;;6.04;84.26;99564.53;5094476;28;20019;-67
2024/03/09 03:49:12;;;;;;;2.63;2.43;;;;;;;6.01;83.90;99554.34;5095272;28;20494;-67
2024/03/09 03:51:41;;;;;;;2.57;2.37;;;;;;;5.96;83.79;99553.44;5095826;28;20300;-67
2024/03/09 03:54:10;;;;;;;3.30;1.67;;;;;;;5.88;84.39;99549.91;5076954;28;20398;-67
2024/03/09 03:56:39;;;;;;;2.13;1.92;;;;;;;5.93;84.21;99555.91;5095150;28;20127;-67
2024/03/09 03:59:09;;;;;;;4.03;2.73;;;;;;;5.90;84.04;99564.31;5095048;28;20039;-68
2024/03/09 04:01:40;;;;;;;1.85;1.73;;;;;;;5.85;84.05;99554.97;5095097;28;20315;-67
2024/03/09 04:04:09;;;;;;;2.13;1.90;;;;;;;5.83;84.03;99561.66;5094003;28;20048;-67
2024/03/09 04:06:44;;;;;;;1.35;1.27;;;;;;;5.69;84.07;99533.56;5095178;28;20040;-67
2024/03/09 04:09:14;;;;;;;4.82;1.50;;;;;;;5.86;84.44;99552.44;5095248;28;20048;-67
2024/03/09 04:11:43;;;;;;;1.75;1.63;;;;;;;5.81;84.08;99543.03;5093990;28;20040;-67
2024/03/09 04:14:12;;;;;;;1.38;1.27;;;;;;;5.91;84.35;99552.50;5093426;28;20040;-66
2024/03/09 04:16:43;;;;;;;1.23;1.13;;;;;;;5.93;83.94;99553.38;5093635;28;20090;-67
2024/03/09 04:19:13;;;;;;;2.17;2.00;;;;;;;5.95;84.04;99549.22;5095009;28;20143;-67
2024/03/09 04:21:43;;;;;;;2.35;2.15;;;;;;;5.99;84.14;99553.47;5095004;28;20110;-67
2024/03/09 04:24:12;;;;;;;1.65;1.42;;;;;;;6.01;83.52;99547.63;5094536;28;20131;-67
2024/03/09 04:26:42;;;;;;;2.85;2.65;;;;;;;6.01;83.93;99546.75;5093665;28;20063;-67
2024/03/09 04:29:11;;;;;;;4.53;2.85;;;;;;;5.96;83.54;99543.31;5093527;28;20394;-67
2024/03/09 04:31:44;;;;;;;3.80;1.75;;;;;;;5.92;83.42;99546.63;5093514;28;20051;-67
2024/03/09 04:34:15;;;;;;;2.92;2.50;;;;;;;5.96;83.94;99553.44;5092737;28;20411;-67
2024/03/09 04:36:45;;;;;;;2.53;2.05;;;;;;;5.99;84.01;99549.28;5092410;28;20044;-67
2024/03/09 04:39:14;;;;;;;0.70;0.70;;;;;;;6.03;83.96;99551.03;5094616;28;20067;-67
2024/03/09 04:41:46;;;;;;;2.72;2.05;;;;;;;6.04;83.50;99546.81;5094592;28;20044;-67
2024/03/09 04:44:16;;;;;;;3.05;2.75;;;;;;;6.07;83.72;99547.69;5093294;28;20130;-67
2024/03/09 04:46:59;;;;;;;6.15;1.60;;;;;;;6.09;83.71;99552.81;5094450;28;20068;-67
2024/03/09 04:49:28;;;;;;;0.82;0.82;;;;;;;6.11;82.68;99543.53;5093485;28;20486;-67
2024/03/09 04:51:57;;;;;;;8.07;4.85;;;;;;;6.13;83.24;99539.34;5093201;28;20483;-67
2024/03/09 04:54:27;;;;;;;2.47;2.25;;;;;;;6.15;82.84;99545.28;5094369;28;20217;-67
2024/03/09 04:56:55;;;;;;;1.95;1.77;;;;;;;6.11;82.78;99538.47;5094634;28;20121;-67
2024/03/09 04:59:24;;;;;;;1.35;1.25;;;;;;;6.01;81.99;99534.09;5094955;28;20517;-67
2024/03/09 05:01:53;;;;;;;1.80;1.63;;;;;;;6.05;82.25;99543.44;5093901;28;20520;-66
2024/03/09 05:04:24;;;;;;;2.88;2.67;;;;;;;6.02;82.49;99538.34;5092859;28;20285;-67
2024/03/09 05:06:54;;;;;;;2.33;1.73;;;;;;;6.03;82.39;99540.03;5094212;28;20043;-67
2024/03/09 05:09:25;;;;;;;4.22;2.05;;;;;;;6.05;81.87;99548.50;5093039;28;20044;-66
2024/03/09 05:11:56;;;;;;;1.35;1.25;;;;;;;6.07;81.76;99544.31;5094128;28;20071;-67
2024/03/09 05:14:25;;;;;;;1.02;0.93;;;;;;;5.97;82.44;99525.59;5092701;28;20048;-67
2024/03/09 05:16:54;;;;;;;2.40;1.87;;;;;;;6.12;82.08;99540.16;5075844;28;20061;-67
2024/03/09 05:19:25;;;;;;;;;;;;;;;6.14;82.28;99546.13;5094714;28;20036;-67
2024/03/09 05:21:54;;;;;;;1.73;1.63;;;;;;;6.13;81.48;99541.88;5093768;28;20327;-67
2024/03/09 05:24:23;;;;;;;4.60;4.05;;;;;;;6.12;81.60;99547.75;5093849;28;20040;-67
2024/03/09 05:26:52;;;;;;;1.75;1.65;;;;;;;6.11;81.47;99556.22;5093571;28;20040;-67
2024/03/09 05:29:21;;;;;;;2.73;2.53;;;;;;;6.13;82.21;99556.22;5092654;28;20048;-66
2024/03/09 05:31:50;;;;;;;2.50;1.65;;;;;;;6.13;81.72;99549.47;5093627;28;20067;-66
2024/03/09 05:34:19;;;;;;;2.78;2.33;;;;;;;6.16;82.15;99552.06;5093905;28;20039;-66
2024/03/09 05:36:49;;;;;;;;;;;;;;;6.20;82.00;99555.47;5092719;28;20043;-66
2024/03/09 05:39:18;;;;;;;1.23;1.13;;;;;;;6.23;81.92;99553.00;5094248;28;19920;-67
2024/03/09 05:41:49;;;;;;;2.70;2.45;;;;;;;6.26;82.22;99555.59;5093812;28;20036;-66
2024/03/09 05:44:22;;;;;;;4.50;4.18;;;;;;;6.28;82.03;99552.25;5092634;28;20044;-67
2024/03/09 05:46:51;;;;;;;3.80;2.65;;;;;;;6.23;81.87;99548.78;5092497;28;20036;-66
2024/03/09 05:49:22;;;;;;;1.45;1.20;;;;;;;6.30;82.12;99555.63;5094959;28;20040;-66
2024/03/09 05:51:52;;;;;;;4.40;3.63;;;;;;;6.30;81.53;99560.72;5096591;28;20055;-67
2024/03/09 05:54:21;;;;;;;0.90;0.90;;;;;;;6.33;81.90;99560.75;5097949;28;20075;-67
2024/03/09 05:56:51;;;;;;;0.50;0.50;;;;;;;6.39;82.14;99565.03;5096324;28;20043;-67
2024/03/09 05:59:19;;;;;;;2.88;2.67;;;;;;;6.34;81.91;99556.53;5096563;28;20052;-67
2024/03/09 06:01:49;;;;;;;0.68;0.63;;;;;;;6.42;81.33;99560.03;5097822;28;20048;-67
2024/03/09 06:04:18;;;;;;;2.00;1.60;;;;;;;6.40;81.68;99562.53;5097651;28;20040;-67
2024/03/09 06:06:46;;;;;;;1.87;1.77;;;;;;;6.47;80.84;99563.47;5097344;28;20040;-67
2024/03/09 06:09:17;;;;;;;2.72;2.53;;;;;;;6.45;80.52;99568.53;5097765;28;20181;-67
2024/03/09 06:11:47;;;;;;;2.22;2.03;;;;;;;6.47;80.89;99569.41;5097431;28;20052;-67
2024/03/09 06:14:20;;;;;;;2.90;2.22;;;;;;;6.49;80.56;99570.28;5097060;28;20486;-67
2024/03/09 06:16:49;;;;;;;1.42;1.08;;;;;;;6.49;80.43;99561.81;5097233;28;20042;-66
2024/03/09 06:19:18;;;;;;;1.98;1.83;;;;;;;6.37;80.11;99539.69;5097345;28;20409;-67
2024/03/09 06:21:48;;;;;;;2.13;1.92;;;;;;;6.51;80.18;99566.06;5096084;28;20040;-66
2024/03/09 06:24:19;;;;;;;2.50;2.05;;;;;;;6.50;79.78;99561.81;5095940;28;20105;-66
2024/03/09 06:26:48;;;;;;;3.67;2.15;;;;;;;6.55;80.00;99562.72;5096003;28;20054;-66
2024/03/09 06:29:16;;;;;;;2.07;1.90;;;;;;;6.65;80.31;99564.56;5096964;28;20036;-67
2024/03/09 06:31:45;;;;;;;1.55;1.45;;;;;;;6.84;79.92;99574.97;5097109;28;20109;-66
2024/03/09 06:34:15;;;;;;;2.80;1.67;;;;;;;6.94;79.57;99569.13;5096982;28;20044;-66
2024/03/09 06:36:46;;;;;;;0.70;0.70;;;;;;;7.04;78.84;99573.50;5096941;28;20390;-67
2024/03/09 06:39:18;;;;;;;1.63;1.52;;;;;;;7.13;77.80;99571.06;5095607;28;20044;-66
2024/03/09 06:41:52;;;;;;;2.20;2.08;;;;;;;7.10;78.05;99571.88;5095792;28;20044;-66
2024/03/09 06:44:22;;;;;;;1.17;1.13;;;;;;;7.10;77.37;99568.50;5096623;28;20079;-66
2024/03/09 06:46:52;;;;;;;3.08;2.22;;;;;;;7.14;77.65;99570.22;5096938;28;20036;-67
2024/03/09 06:49:21;;;;;;;2.55;2.35;;;;;;;7.12;77.09;99571.91;5096500;28;20054;-66
2024/03/09 06:51:49;;;;;;;2.58;1.95;;;;;;;7.10;76.80;99553.28;5096623;28;20040;-67
2024/03/09 06:54:18;;;;;;;1.58;1.48;;;;;;;7.13;76.58;99558.34;5096972;28;20549;-66
2024/03/09 06:56:49;;;;;;;2.40;2.20;;;;;;;7.15;76.28;99564.31;5096240;28;20393;-67
2024/03/09 06:59:19;;;;;;;3.63;2.42;;;;;;;7.16;76.39;99555.88;5095346;28;20108;-66
2024/03/09 07:01:50;;;;;;;4.43;2.95;;;;;;;7.23;75.83;99544.94;5095584;28;20051;-66
2024/03/09 07:04:19;;;;;;;4.40;4.03;;;;;;;7.39;74.66;99550.19;5096288;28;20040;-66
2024/03/09 07:06:48;;;;;;;5.78;1.73;;;;;;;7.66;74.62;99547.06;5096154;28;20090;-66
2024/03/09 07:09:17;;;;;;;3.55;2.75;;;;;;;7.93;73.78;99546.44;5096349;28;20122;-67
2024/03/09 07:11:46;;;;;;;4.00;3.38;;;;;;;8.18;71.98;99553.41;5096021;28;20438;-67
2024/03/09 07:14:15;;;;;;;3.23;2.93;;;;;;;8.34;71.34;99549.28;5095895;28;20424;-67
2024/03/09 07:16:46;;;;;;;1.20;1.10;;;;;;;8.45;70.42;99557.81;5096418;28;20356;-67
2024/03/09 07:19:16;;;;;;;2.55;1.80;;;;;;;8.46;69.64;99550.22;5096456;28;20394;-67
2024/03/09 07:21:45;;;;;;;2.25;1.95;;;;;;;8.61;69.18;99544.34;5096019;28;20490;-66
2024/03/09 07:24:14;;;;;;;4.35;3.60;;;;;;;8.79;68.80;99536.78;5095867;28;20044;-67
2024/03/09 07:26:43;;;;;;;7.63;5.63;;;;;;;8.81;67.24;99537.63;5095914;28;20036;-66
2024/03/09 07:29:12;;;;;;;2.35;1.75;;;;;;;8.72;67.10;99537.59;5096075;28;20089;-65
2024/03/09 07:31:40;;;;;;;8.33;4.00;;;;;;;8.67;66.51;99536.72;5095918;28;20097;-66
2024/03/09 07:34:11;;;;;;;1.03;0.93;;;;;;;8.73;66.91;99535.06;5096096;28;20043;-65
2024/03/09 07:36:40;;;;;;;4.35;2.72;;;;;;;8.83;65.76;99533.41;5077884;28;20143;-66
2024/03/09 07:39:15;;;;;;;1.23;1.13;;;;;;;8.78;66.13;99542.75;5094225;28;20062;-65
2024/03/09 07:41:44;;;;;;;3.88;3.00;;;;;;;8.90;66.59;99540.22;5095778;28;20627;-65
2024/03/09 07:44:13;;;;;;;2.90;2.30;;;;;;;9.06;66.30;99534.34;5095601;28;20131;-65
2024/03/09 07:46:42;;;;;;;1.75;1.65;;;;;;;9.08;65.03;99542.84;5095751;28;20044;-65
2024/03/09 07:49:13;;;;;;;5.83;3.03;;;;;;;9.19;65.49;99525.06;5095720;28;20040;-65
2024/03/09 07:51:42;;;;;;;6.07;3.03;;;;;;;9.24;64.90;99528.44;5095598;28;20071;-65
2024/03/09 07:54:11;;;;;;;2.83;2.60;;;;;;;9.23;65.00;99531.84;5095637;28;20040;-65
2024/03/09 07:56:40;;;;;;;1.60;1.50;;;;;;;9.17;63.81;99532.66;5095031;28;20040;-65
2024/03/09 07:59:09;;;;;;;0.70;0.70;;;;;;;9.01;63.90;99536.03;5076870;28;20032;-65
2024/03/09 08:01:38;;;;;;;1.42;1.35;;;;;;;9.05;64.99;99532.63;5077211;28;20062;-66
2024/03/09 08:04:08;;;;;;;3.83;2.05;;;;;;;9.06;65.57;99536.03;5095013;28;20043;-65
2024/03/09 08:06:40;;;;;;;1.67;1.58;;;;;;;9.01;65.51;99533.47;5093791;28;20032;-65
2024/03/09 08:09:13;;;;;;;3.60;1.30;;;;;;;9.00;65.17;99531.78;5095077;28;20040;-65
2024/03/09 08:11:42;;;;;;;5.53;2.45;;;;;;;9.06;65.38;99531.81;5095050;28;20044;-66
2024/03/09 08:14:11;;;;;;;1.70;1.58;;;;;;;9.16;64.83;99535.22;5094769;28;20044;-66
2024/03/09 08:16:40;;;;;;;2.30;2.10;;;;;;;9.11;65.02;99539.44;5094824;28;20062;-66
2024/03/09 08:19:09;;;;;;;3.85;1.48;;;;;;;9.08;65.62;99540.28;5094800;28;20040;-65
2024/03/09 08:21:39;;;;;;;2.70;1.60;;;;;;;8.98;65.37;99541.09;5093337;28;20139;-66
2024/03/09 08:24:08;;;;;;;3.72;2.08;;;;;;;8.90;66.24;99536.84;5093736;28;20093;-66
2024/03/09 08:26:36;;;;;;;2.27;2.07;;;;;;;8.80;66.62;99535.09;5094538;28;20047;-66
2024/03/09 08:29:05;;;;;;;3.17;2.20;;;;;;;8.81;66.56;99532.56;5094670;28;20044;-65
2024/03/09 08:31:34;;;;;;;1.95;1.55;;;;;;;8.75;67.42;99538.50;5095126;28;20471;-65
2024/03/09 08:34:03;;;;;;;1.80;1.70;;;;;;;8.77;67.49;99535.94;5094771;28;20090;-66
2024/03/09 08:36:34;;;;;;;2.30;2.10;;;;;;;8.78;68.68;99535.09;5094642;28;20048;-66
2024/03/09 08:39:04;;;;;;;3.50;1.42;;;;;;;8.77;67.12;99541.03;5094681;28;20040;-66
2024/03/09 08:41:34;;;;;;;1.05;1.02;;;;;;;8.66;67.77;99537.59;5094625;28;20565;-66
2024/03/09 08:44:02;;;;;;;1.27;1.20;;;;;;;8.64;67.97;99545.19;5094583;28;20097;-66
2024/03/09 08:46:31;;;;;;;0.65;0.65;;;;;;;8.49;68.18;99529.03;5094384;28;20063;-66
2024/03/09 08:49:00;;;;;;;1.77;1.67;;;;;;;8.48;68.29;99542.56;5094823;28;20040;-66
2024/03/09 08:51:28;;;;;;;1.48;1.38;;;;;;;8.45;68.49;99543.41;5094057;28;20044;-66
2024/03/09 08:53:57;;;;;;;3.97;2.03;;;;;;;8.47;68.15;99534.09;5093092;28;20044;-66
2024/03/09 08:56:28;;;;;;;2.22;1.98;;;;;;;8.47;68.83;99535.81;5094366;28;20044;-66
2024/03/09 08:58:57;;;;;;;6.53;1.65;;;;;;;8.48;69.23;99537.50;5094468;28;20040;-65
2024/03/09 09:01:26;;;;;;;3.47;1.42;;;;;;;8.46;69.74;99536.63;5093944;28;20060;-66
2024/03/09 09:03:55;;;;;;;1.67;1.57;;;;;;;8.45;69.63;99532.38;5094133;28;20123;-66
2024/03/09 09:06:24;;;;;;;3.20;2.83;;;;;;;8.43;69.03;99529.84;5093852;28;20316;-65
2024/03/09 09:08:52;;;;;;;0.97;0.93;;;;;;;8.44;69.36;99551.03;5094034;28;20038;-66
2024/03/09 09:11:22;;;;;;;1.58;1.48;;;;;;;8.39;68.74;99537.44;5094115;28;20281;-65
2024/03/09 09:13:53;;;;;;;2.65;1.65;;;;;;;8.32;69.15;99520.47;5094099;28;20052;-65
2024/03/09 09:16:22;;;;;;;4.45;1.90;;;;;;;8.37;69.77;99528.97;5092421;28;20102;-65
2024/03/09 09:18:51;;;;;;;1.87;1.37;;;;;;;8.39;69.25;99542.53;5093897;28;20089;-65
2024/03/09 09:21:21;;;;;;;1.75;1.63;;;;;;;8.35;69.49;99530.66;5094019;28;20494;-65
2024/03/09 09:23:50;;;;;;;1.73;1.43;;;;;;;8.41;70.46;99533.22;5092056;28;20529;-65
2024/03/09 09:26:19;;;;;;;3.07;2.77;;;;;;;8.43;70.22;99524.75;5093838;28;20040;-65
2024/03/09 09:28:48;;;;;;;5.20;1.80;;;;;;;8.47;70.11;99518.84;5092618;28;20086;-66
2024/03/09 09:31:21;;;;;;;1.92;1.70;;;;;;;8.51;70.29;99527.34;5093160;28;20044;-66
2024/03/09 09:33:51;;;;;;;1.50;1.40;;;;;;;8.52;69.86;99519.72;5094383;28;20398;-65
2024/03/09 09:36:20;;;;;;;;;;;;;;;8.54;69.72;99522.28;5094187;28;20470;-66
2024/03/09 09:38:49;;;;;;;1.75;1.65;;;;;;;8.43;69.22;99495.94;5092040;28;19927;-65
2024/03/09 09:41:20;;;;;;;2.10;1.73;;;;;;;8.54;69.29;99507.00;5092499;28;20040;-65
2024/03/09 09:43:48;;;;;;;;;;;;;;;8.53;69.69;99510.38;5094245;28;20058;-64
2024/03/09 09:46:18;;;;;;;2.93;2.10;;;;;;;8.55;69.08;99508.69;5093656;28;19927;-65
2024/03/09 09:48:52;;;;;;;0.85;0.80;;;;;;;8.52;69.21;99508.69;5093676;28;20040;-64
2024/03/09 09:51:23;;;;;;;3.95;3.65;;;;;;;8.60;69.71;99507.03;5093483;28;20041;-64
2024/03/09 09:53:53;;;;;;;2.67;2.47;;;;;;;8.64;69.22;99513.81;5092830;28;20059;-64
2024/03/09 09:56:22;;;;;;;0.65;0.65;;;;;;;8.63;69.14;99512.13;5090348;28;20123;-65
2024/03/09 09:58:51;;;;;;;3.43;1.97;;;;;;;8.61;68.65;99498.56;5093124;28;20082;-65
2024/03/09 10:01:20;;;;;;;1.30;1.20;;;;;;;8.50;69.36;99495.09;5092460;28;20280;-64
2024/03/09 10:03:52;;;;;;;1.25;1.08;;;;;;;8.58;68.65;99513.81;5093569;28;20466;-65
2024/03/09 10:06:22;;;;;;;1.65;1.55;;;;;;;8.56;69.54;99502.78;5109287;28;20048;-65
2024/03/09 10:08:53;;;;;;;2.80;2.38;;;;;;;8.62;68.99;99505.34;5078171;28;20044;-65
2024/03/09 10:11:22;;;;;;;1.52;1.42;;;;;;;8.61;69.52;99501.94;5073361;28;20076;-65
2024/03/09 10:13:59;;;;;;;1.70;1.60;;;;;;;8.61;69.16;99501.09;5073209;28;20044;-65
2024/03/09 10:16:29;;;;;;;2.30;1.77;;;;;;;8.63;68.67;99507.03;5072027;28;20040;-65
2024/03/09 10:19:00;;;;;;;3.10;1.48;;;;;;;8.72;68.75;99507.06;5071973;28;20052;-65
2024/03/09 10:21:33;;;;;;;6.75;2.55;;;;;;;8.78;68.77;99496.94;5073142;28;20510;-65
2024/03/09 10:24:07;;;;;;;1.70;1.60;;;;;;;8.82;68.94;99498.63;5073083;28;20064;-65
2024/03/09 10:26:36;;;;;;;5.75;2.65;;;;;;;8.85;68.31;99493.56;5072842;28;20135;-65
2024/03/09 10:29:07;;;;;;;1.80;1.70;;;;;;;8.81;68.59;99486.75;5073498;28;20399;-65
2024/03/09 10:31:42;;;;;;;2.85;2.30;;;;;;;8.88;68.21;99492.72;5073088;28;20048;-65
2024/03/09 10:34:13;;;;;;;1.73;1.63;;;;;;;8.86;67.97;99500.34;5073463;28;20095;-65
2024/03/09 10:36:44;;;;;;;2.65;2.40;;;;;;;8.95;69.15;99495.25;5075829;28;20044;-65
2024/03/09 10:39:19;;;;;;;1.90;1.38;;;;;;;8.97;68.54;99491.06;5076568;28;20056;-65
2024/03/09 10:41:53;;;;;;;1.13;1.02;;;;;;;9.01;68.84;99491.91;5058803;28;20497;-65
2024/03/09 10:44:24;;;;;;;2.10;1.95;;;;;;;9.00;68.29;99477.50;5076579;28;20465;-65
2024/03/09 10:46:57;;;;;;;2.70;1.88;;;;;;;9.03;68.42;99477.47;5076775;28;20050;-65
2024/03/09 10:49:30;;;;;;;2.40;2.20;;;;;;;9.04;67.85;99474.94;5076553;28;20040;-65
2024/03/09 10:52:04;;;;;;;1.48;1.38;;;;;;;9.06;67.96;99480.88;5076227;28;20512;-64
2024/03/09 10:54:45;;;;;;;4.90;3.17;;;;;;;9.10;68.51;99490.22;5075173;28;20159;-64
2024/03/09 10:57:21;;;;;;;4.88;2.33;;;;;;;9.08;68.08;99471.56;5075633;28;20044;-64
2024/03/09 10:59:52;;;;;;;1.77;1.67;;;;;;;9.09;67.50;99458.00;5075245;28;20045;-65
2024/03/09 11:02:23;;;;;;;2.50;2.30;;;;;;;9.15;67.22;99468.16;5075117;28;20138;-65
2024/03/09 11:04:54;;;;;;;2.35;1.85;;;;;;;9.21;68.14;99463.06;5075305;28;20086;-65
2024/03/09 11:07:24;;;;;;;2.17;1.40;;;;;;;9.26;67.78;99453.75;5076184;28;20052;-65
2024/03/09 11:09:53;;;;;;;;;;;;;;;9.25;67.09;99454.59;5075070;28;20487;-65
2024/03/09 11:12:23;;;;;;;3.22;2.08;;;;;;;9.19;67.37;99464.78;5076192;28;19970;-64
2024/03/09 11:14:52;;;;;;;1.02;0.98;;;;;;;9.07;67.19;99448.66;5074467;28;20051;-65
2024/03/09 11:17:23;;;;;;;0.88;0.88;;;;;;;9.12;67.12;99445.25;5075805;28;20089;-64
2024/03/09 11:19:59;;;;;;;1.25;1.05;;;;;;;9.18;67.82;99455.44;5075759;28;20033;-65
2024/03/09 11:22:50;;;;;;;2.55;1.98;;;;;;;9.22;67.32;99446.97;5076048;28;20044;-65
2024/03/09 11:25:37;;;;;;;2.08;1.88;;;;;;;9.24;67.35;99442.72;5075698;28;20429;-65
2024/03/09 11:28:07;;;;;;;2.25;1.73;;;;;;;9.23;66.82;99433.38;5075976;28;20045;-65
2024/03/09 11:30:36;;;;;;;1.63;1.52;;;;;;;9.29;67.31;99446.13;5076031;28;20043;-65
2024/03/09 11:33:10;;;;;;;2.80;2.53;;;;;;;9.34;66.96;99434.22;5057766;28;20399;-65
2024/03/09 11:35:41;;;;;;;2.03;1.83;;;;;;;9.30;66.72;99442.72;5074251;28;20434;-65
2024/03/09 11:38:12;;;;;;;2.88;2.30;;;;;;;9.29;66.62;99446.13;5057597;28;20141;-64
2024/03/09 11:40:41;;;;;;;2.72;2.53;;;;;;;9.29;66.79;99441.03;5075552;28;20064;-64
2024/03/09 11:43:14;;;;;;;2.75;2.08;;;;;;;9.31;66.17;99446.09;5075544;28;20044;-64
2024/03/09 11:45:45;;;;;;;1.58;1.48;;;;;;;9.32;67.03;99440.16;5075312;28;20046;-65
2024/03/09 11:48:14;;;;;;;2.72;2.15;;;;;;;9.36;66.38;99440.16;5075377;28;20145;-65
2024/03/09 11:50:44;;;;;;;5.05;1.77;;;;;;;9.35;66.55;99446.13;5074615;28;20052;-64
2024/03/09 11:53:14;;;;;;;1.63;1.52;;;;;;;9.25;66.03;99434.25;5075367;28;20048;-65
2024/03/09 11:55:43;;;;;;;4.40;3.10;;;;;;;9.24;66.44;99441.84;5073782;28;20510;-65
2024/03/09 11:58:13;;;;;;;2.33;1.80;;;;;;;9.23;66.61;99435.94;5074040;28;20094;-64